createdAt,value
2019-04-22T00:00:57.265Z,12.10
2019-04-22T00:03:33.926Z,13.03
2019-04-22T00:06:21.115Z,11.93
2019-04-22T00:08:56.029Z,12.17
2019-04-22T00:11:30.374Z,12.23
2019-04-22T00:14:02.655Z,11.90
2019-04-22T00:16:40.510Z,12.43
2019-04-22T00:21:41.901Z,13.03
2019-04-22T00:24:05.876Z,13.17
2019-04-22T00:26:44.225Z,13.10
2019-04-22T00:29:26.932Z,12.70
2019-04-22T00:32:05.042Z,12.73
2019-04-22T00:34:42.616Z,12.93
2019-04-22T00:37:17.721Z,13.03
2019-04-22T00:39:46.535Z,12.87
2019-04-22T00:42:21.184Z,13.20
2019-04-22T00:44:53.808Z,13.40
2019-04-22T00:47:29.346Z,13.73
2019-04-22T00:50:12.674Z,13.03
2019-04-22T00:52:33.862Z,13.00
2019-04-22T00:55:05.570Z,14.03
2019-04-22T00:57:32.662Z,14.13
2019-04-22T01:00:11.686Z,14.70
2019-04-22T01:02:42.942Z,13.77
2019-04-22T01:05:16.960Z,13.30
2019-04-22T01:07:45.876Z,13.57
2019-04-22T01:10:20.383Z,13.87
2019-04-22T01:12:53.316Z,14.47
2019-04-22T01:15:23.371Z,14.00
2019-04-22T01:17:54.576Z,13.60
2019-04-22T01:20:45.710Z,13.60
2019-04-22T01:23:00.719Z,14.30
2019-04-22T01:25:28.107Z,13.77
2019-04-22T01:27:52.865Z,14.03
2019-04-22T01:30:21.039Z,13.70
2019-04-22T01:32:45.668Z,14.47
2019-04-22T01:35:28.694Z,13.83
2019-04-22T01:38:04.292Z,13.60
2019-04-22T01:40:48.260Z,14.67
2019-04-22T01:43:17.815Z,13.47
2019-04-22T01:45:45.725Z,14.47
2019-04-22T01:48:17.740Z,14.63
2019-04-22T01:50:49.674Z,14.00
2019-04-22T01:53:27.490Z,13.93
2019-04-22T01:55:55.546Z,13.33
2019-04-22T01:58:23.695Z,15.17
2019-04-22T02:01:13.613Z,14.63
2019-04-22T02:03:33.223Z,14.57
2019-04-22T02:06:07.495Z,14.40
2019-04-22T02:08:46.624Z,13.90
2019-04-22T02:11:07.907Z,14.70
2019-04-22T02:16:27.391Z,15.13
2019-04-22T02:18:44.641Z,14.13
2019-04-22T02:21:13.761Z,14.50
2019-04-22T02:26:36.936Z,14.33
2019-04-22T02:41:35.058Z,15.30
2019-04-22T02:54:36.573Z,16.60
2019-04-22T02:56:48.016Z,16.57
2019-04-22T02:59:14.324Z,15.70
2019-04-22T03:04:18.605Z,16.03
2019-04-22T03:10:29.415Z,17.00
2019-04-22T03:12:54.146Z,15.77
2019-04-22T03:15:21.651Z,18.17
2019-04-22T03:18:00.912Z,15.73
2019-04-22T03:20:27.429Z,15.67
2019-04-22T03:23:16.833Z,16.70
2019-04-22T03:28:02.627Z,15.73
2019-04-22T03:30:53.484Z,17.10
2019-04-22T03:38:29.038Z,17.40
2019-04-22T03:40:52.944Z,17.80
2019-04-22T03:43:23.941Z,17.43
2019-04-22T03:45:51.447Z,17.60
2019-04-22T03:48:28.700Z,17.40
2019-04-22T03:50:57.570Z,17.50
2019-04-22T03:53:35.737Z,18.33
2019-04-22T03:56:10.327Z,17.50
2019-04-22T03:58:41.134Z,17.67
2019-04-22T04:01:06.808Z,18.07
2019-04-22T04:03:46.373Z,17.80
2019-04-22T04:06:10.343Z,18.23
2019-04-22T04:11:07.004Z,18.57
2019-04-22T04:13:52.141Z,17.63
2019-04-22T04:16:27.618Z,17.77
2019-04-22T04:18:57.864Z,18.30
2019-04-22T04:24:11.766Z,18.00
2019-04-22T04:26:45.861Z,18.57
2019-04-22T04:29:17.173Z,18.17
2019-04-22T04:31:37.913Z,17.93
2019-04-22T04:34:08.136Z,18.20
2019-04-22T04:36:37.227Z,18.23
2019-04-22T04:39:07.277Z,18.70
2019-04-22T04:41:42.066Z,18.07
2019-04-22T04:44:40.687Z,19.30
2019-04-22T04:49:18.696Z,18.30
2019-04-22T04:51:47.160Z,19.20
2019-04-22T04:56:51.414Z,17.77
2019-04-22T05:01:52.564Z,18.67
2019-04-22T05:07:19.196Z,17.77
2019-04-22T05:09:47.467Z,18.40
2019-04-22T05:12:22.806Z,18.30
2019-04-22T05:14:28.780Z,17.00
2019-04-22T05:19:32.346Z,18.07
2019-04-22T05:22:13.212Z,17.73
2019-04-22T05:30:00.146Z,17.43
2019-04-22T05:32:31.010Z,19.03
2019-04-22T05:34:48.111Z,16.97
2019-04-22T05:37:25.086Z,16.70
2019-04-22T05:39:52.602Z,17.43
2019-04-22T05:42:17.825Z,17.60
2019-04-22T05:44:55.194Z,17.10
2019-04-22T05:47:25.656Z,17.23
2019-04-22T05:49:54.970Z,17.10
2019-04-22T05:52:26.978Z,18.50
2019-04-22T05:55:04.610Z,17.03
2019-04-22T05:57:38.900Z,17.93
2019-04-22T06:00:06.379Z,17.40
2019-04-22T06:02:47.363Z,17.43
2019-04-22T06:05:11.874Z,17.33
2019-04-22T06:07:41.467Z,17.93
2019-04-22T06:10:21.435Z,17.23
2019-04-22T06:12:41.725Z,18.07
2019-04-22T06:15:19.456Z,17.70
2019-04-22T06:18:06.507Z,17.70
2019-04-22T06:20:34.022Z,16.97
2019-04-22T06:23:12.451Z,16.90
2019-04-22T06:26:03.982Z,16.40
2019-04-22T06:28:22.272Z,17.07
2019-04-22T06:35:56.363Z,16.83
2019-04-22T06:38:39.204Z,16.60
2019-04-22T06:41:04.060Z,16.40
2019-04-22T06:43:38.180Z,14.47
2019-04-22T06:46:03.578Z,14.50
2019-04-22T06:48:36.292Z,15.77
2019-04-22T06:51:06.372Z,13.80
2019-04-22T06:53:43.901Z,13.83
2019-04-22T06:56:12.661Z,13.90
2019-04-22T06:58:51.486Z,13.20
2019-04-22T07:01:24.810Z,12.60
2019-04-22T07:06:26.454Z,12.50
2019-04-22T07:09:18.614Z,12.37
2019-04-22T07:11:23.637Z,12.83
2019-04-22T07:14:02.968Z,12.10
2019-04-22T07:16:39.420Z,12.13
2019-04-22T07:19:15.130Z,12.20
2019-04-22T07:21:37.085Z,11.73
2019-04-22T07:24:28.207Z,13.03
2019-04-22T07:26:37.779Z,12.87
2019-04-22T07:29:12.090Z,12.37
2019-04-22T07:31:44.992Z,12.73
2019-04-22T07:34:24.874Z,12.70
2019-04-22T07:36:55.140Z,12.67
2019-04-22T07:39:27.528Z,12.17
2019-04-22T07:41:51.611Z,11.00
2019-04-22T07:44:24.192Z,9.55
2019-04-22T07:47:08.386Z,9.97
2019-04-22T07:49:35.008Z,9.27
2019-04-22T07:51:55.756Z,9.00
2019-04-22T07:54:31.634Z,9.40
2019-04-22T07:57:11.705Z,9.07
2019-04-22T07:59:35.190Z,9.70
2019-04-22T08:02:10.103Z,9.33
2019-04-22T08:04:54.209Z,9.83
2019-04-22T08:07:14.428Z,9.98
2019-04-22T08:09:57.981Z,9.50
2019-04-22T08:12:12.868Z,9.50
2019-04-22T08:14:50.015Z,9.30
2019-04-22T08:17:45.057Z,9.35
2019-04-22T08:19:57.477Z,9.18
2019-04-22T08:22:23.728Z,9.23
2019-04-22T08:25:01.729Z,9.93
2019-04-22T08:27:30.182Z,9.33
2019-04-22T08:30:23.620Z,9.43
2019-04-22T08:35:18.492Z,8.60
2019-04-22T08:40:20.675Z,8.80
2019-04-22T08:42:51.022Z,8.28
2019-04-22T08:45:28.588Z,7.70
2019-04-22T08:48:00.984Z,8.23
2019-04-22T08:50:23.476Z,7.97
2019-04-22T08:52:57.579Z,8.35
2019-04-22T08:55:24.595Z,7.45
2019-04-22T09:00:34.223Z,7.80
2019-04-22T09:03:15.928Z,7.87
2019-04-22T09:08:14.261Z,7.42
2019-04-22T09:13:08.298Z,6.10
2019-04-22T09:15:42.211Z,6.90
2019-04-22T09:18:19.318Z,7.30
2019-04-22T09:20:48.692Z,6.37
2019-04-22T09:23:27.095Z,6.15
2019-04-22T09:25:48.487Z,5.00
2019-04-22T09:28:25.486Z,5.45
2019-04-22T09:31:01.739Z,5.60
2019-04-22T09:33:32.125Z,5.40
2019-04-22T09:36:09.369Z,5.10
2019-04-22T09:38:38.129Z,5.10
2019-04-22T09:41:10.312Z,4.83
2019-04-22T09:43:49.292Z,4.75
2019-04-22T09:46:14.797Z,4.55
2019-04-22T09:48:55.399Z,4.78
2019-04-22T09:51:18.700Z,4.55
2019-04-22T09:53:57.793Z,5.30
2019-04-22T09:56:23.838Z,4.50
2019-04-22T10:01:29.549Z,5.17
2019-04-22T10:14:06.080Z,4.75
2019-04-22T10:19:11.432Z,4.35
2019-04-22T10:21:49.966Z,4.10
2019-04-22T10:24:13.508Z,4.33
2019-04-22T10:26:47.962Z,4.97
2019-04-22T10:29:19.596Z,4.33
2019-04-22T10:31:52.667Z,3.85
2019-04-22T10:34:13.162Z,4.25
2019-04-22T10:36:31.047Z,4.47
2019-04-22T10:39:02.284Z,4.20
2019-04-22T10:41:34.809Z,3.75
2019-04-22T10:44:05.523Z,4.22
2019-04-22T10:46:37.936Z,3.77
2019-04-22T10:49:08.451Z,4.15
2019-04-22T10:51:40.272Z,4.25
2019-04-22T10:54:11.476Z,3.52
2019-04-22T10:56:43.114Z,4.00
2019-04-22T10:59:14.293Z,3.55
2019-04-22T11:01:46.439Z,3.90
2019-04-22T11:04:17.539Z,3.83
2019-04-22T11:06:55.597Z,3.50
2019-04-22T11:09:23.406Z,3.90
2019-04-22T11:12:01.390Z,3.98
2019-04-22T11:14:24.698Z,4.28
2019-04-22T11:16:55.634Z,3.40
2019-04-22T11:19:28.010Z,4.05
2019-04-22T11:22:07.817Z,3.70
2019-04-22T11:24:32.805Z,4.70
2019-04-22T11:27:05.315Z,3.85
2019-04-22T11:29:35.540Z,4.70
2019-04-22T11:32:06.411Z,4.33
2019-04-22T11:34:37.594Z,4.28
2019-04-22T11:37:08.021Z,4.47
2019-04-22T11:39:38.663Z,3.80
2019-04-22T11:42:09.995Z,4.40
2019-04-22T11:44:41.242Z,4.40
2019-04-22T11:47:12.371Z,4.12
2019-04-22T11:49:43.790Z,4.30
2019-04-22T11:52:16.398Z,4.35
2019-04-22T11:54:46.805Z,3.45
2019-04-22T11:57:19.148Z,3.85
2019-04-22T11:59:49.054Z,4.00
2019-04-22T12:03:59.855Z,4.22
2019-04-22T12:06:31.719Z,3.90
2019-04-22T12:09:03.756Z,4.08
2019-04-22T12:17:11.552Z,4.10
2019-04-22T12:22:07.039Z,3.90
2019-04-22T12:24:38.423Z,3.80
2019-04-22T12:27:10.543Z,4.72
2019-04-22T12:29:42.961Z,4.58
2019-04-22T12:32:13.571Z,4.37
2019-04-22T12:34:44.369Z,3.98
2019-04-22T12:37:22.292Z,3.80
2019-04-22T12:39:47.783Z,4.20
2019-04-22T12:42:19.598Z,4.78
2019-04-22T12:44:51.173Z,4.85
2019-04-22T12:47:22.192Z,4.53
2019-04-22T12:49:56.097Z,4.15
2019-04-22T12:52:33.931Z,4.30
2019-04-22T12:54:57.331Z,4.17
2019-04-22T12:57:28.295Z,4.58
2019-04-22T12:59:59.570Z,4.60
2019-04-22T13:02:31.226Z,4.17
2019-04-22T13:05:01.495Z,4.35
2019-04-22T13:07:31.719Z,4.25
2019-04-22T13:10:01.908Z,4.17
2019-04-22T13:12:33.041Z,4.40
2019-04-22T13:15:05.990Z,4.17
2019-04-22T13:17:35.712Z,4.30
2019-04-22T13:20:08.271Z,4.22
2019-04-22T13:22:40.603Z,4.60
2019-04-22T13:25:12.529Z,4.33
2019-04-22T13:27:44.786Z,5.00
2019-04-22T13:30:18.479Z,4.50
2019-04-22T13:32:49.121Z,4.80
2019-04-22T13:35:22.034Z,4.17
2019-04-22T13:37:53.041Z,4.08
2019-04-22T13:40:23.549Z,4.45
2019-04-22T13:42:55.442Z,4.50
2019-04-22T13:45:27.350Z,4.50
2019-04-22T13:48:16.826Z,4.20
2019-04-22T13:51:11.036Z,4.30
2019-04-22T13:55:59.277Z,4.00
2019-04-22T13:58:17.160Z,4.42
2019-04-22T14:00:38.461Z,4.62
2019-04-22T14:03:44.443Z,4.67
2019-04-22T14:06:16.349Z,4.92
2019-04-22T14:09:07.689Z,5.05
2019-04-22T14:11:49.808Z,4.78
2019-04-22T14:14:12.734Z,5.25
2019-04-22T14:16:43.025Z,7.30
2019-04-22T14:19:13.933Z,4.45
2019-04-22T14:21:47.275Z,8.58
2019-04-22T14:24:17.831Z,5.62
2019-04-22T14:27:01.712Z,5.03
2019-04-22T14:29:20.177Z,5.62
2019-04-22T14:35:45.804Z,5.60
2019-04-22T14:40:52.027Z,5.55
2019-04-22T14:43:50.188Z,5.40
2019-04-22T14:44:12.632Z,4.67
2019-04-22T14:46:34.992Z,4.87
2019-04-22T14:48:50.004Z,5.08
2019-04-22T14:51:18.916Z,5.12
2019-04-22T14:53:44.796Z,4.95
2019-04-22T14:56:02.295Z,4.60
2019-04-22T15:00:56.657Z,4.40
2019-04-22T15:05:55.500Z,4.87
2019-04-22T15:08:26.921Z,4.40
2019-04-22T15:10:58.270Z,5.33
2019-04-22T15:13:29.452Z,5.33
2019-04-22T15:16:09.903Z,4.62
2019-04-22T15:18:44.365Z,6.12
2019-04-22T15:21:18.654Z,5.33
2019-04-22T15:23:49.103Z,4.15
2019-04-22T15:26:20.325Z,5.20
2019-04-22T15:28:51.410Z,4.97
2019-04-22T15:31:21.822Z,4.40
2019-04-22T15:33:52.385Z,4.60
2019-04-22T15:36:24.025Z,3.98
2019-04-22T15:38:55.306Z,4.20
2019-04-22T15:41:26.359Z,4.42
2019-04-22T15:43:57.418Z,4.22
2019-04-22T15:51:28.981Z,4.03
2019-04-22T15:54:01.450Z,4.03
2019-04-22T15:56:32.641Z,3.85
2019-04-22T15:59:17.267Z,4.37
2019-04-22T16:01:41.046Z,3.85
2019-04-22T16:04:10.449Z,4.20
2019-04-22T16:06:41.223Z,4.15
2019-04-22T16:09:13.223Z,4.10
2019-04-22T16:11:45.845Z,3.77
2019-04-22T16:14:25.526Z,4.00
2019-04-22T16:16:54.688Z,4.12
2019-04-22T16:19:25.453Z,3.87
2019-04-22T16:22:03.125Z,3.72
2019-04-22T16:24:45.857Z,3.80
2019-04-22T16:27:20.750Z,3.75
2019-04-22T16:29:51.549Z,4.10
2019-04-22T16:32:23.260Z,3.80
2019-04-22T16:34:54.658Z,4.30
2019-04-22T16:37:26.087Z,4.37
2019-04-22T16:39:56.639Z,4.45
2019-04-22T16:42:35.923Z,4.00
2019-04-22T16:44:59.613Z,3.90
2019-04-22T16:47:31.182Z,4.17
2019-04-22T16:50:01.885Z,4.35
2019-04-22T16:52:32.315Z,5.87
2019-04-22T16:55:03.485Z,4.53
2019-04-22T16:57:33.879Z,5.45
2019-04-22T17:00:08.773Z,3.60
2019-04-22T17:03:12.882Z,4.08
2019-04-22T17:06:14.663Z,4.00
2019-04-22T17:08:44.939Z,3.83
2019-04-22T17:11:16.055Z,4.58
2019-04-22T17:13:47.991Z,4.53
2019-04-22T17:16:20.070Z,4.40
2019-04-22T17:18:52.205Z,4.50
2019-04-22T17:21:23.602Z,3.45
2019-04-22T17:23:54.139Z,3.55
2019-04-22T17:26:26.111Z,3.27
2019-04-22T17:28:58.043Z,3.35
2019-04-22T17:31:29.035Z,4.05
2019-04-22T17:33:59.331Z,3.50
2019-04-22T17:36:29.794Z,3.85
2019-04-22T17:39:19.622Z,3.65
2019-04-22T17:41:50.087Z,3.65
2019-04-22T17:47:28.773Z,3.98
2019-04-22T17:50:11.839Z,3.47
2019-04-22T17:52:37.173Z,3.50
2019-04-22T17:55:12.678Z,3.77
2019-04-22T17:57:39.387Z,3.55
2019-04-22T18:00:17.319Z,3.67
2019-04-22T18:02:46.009Z,5.12
2019-04-22T18:05:05.525Z,4.03
2019-04-22T18:07:54.818Z,4.10
2019-04-22T18:13:07.499Z,5.22
2019-04-22T18:15:33.455Z,4.42
2019-04-22T18:18:06.875Z,3.90
2019-04-22T18:20:30.498Z,4.05
2019-04-22T18:22:58.058Z,3.80
2019-04-22T18:25:34.009Z,4.33
2019-04-22T18:30:35.066Z,3.83
2019-04-22T18:33:13.305Z,3.92
2019-04-22T18:35:44.391Z,4.25
2019-04-22T18:38:29.701Z,3.85
2019-04-22T18:40:53.468Z,3.65
2019-04-22T18:43:28.825Z,3.95
2019-04-22T18:46:00.370Z,4.37
2019-04-22T18:48:21.739Z,5.70
2019-04-22T18:51:25.053Z,4.65
2019-04-22T18:54:19.720Z,4.17
2019-04-22T18:56:56.078Z,3.95
2019-04-22T18:59:18.446Z,3.85
2019-04-22T19:01:44.198Z,4.15
2019-04-22T19:04:22.028Z,4.30
2019-04-22T19:07:14.931Z,4.42
2019-04-22T19:09:53.298Z,4.15
2019-04-22T19:12:22.195Z,4.20
2019-04-22T19:14:52.965Z,4.40
2019-04-22T19:17:31.311Z,4.62
2019-04-22T19:19:56.125Z,4.72
2019-04-22T19:22:26.555Z,4.53
2019-04-22T19:24:47.327Z,4.78
2019-04-22T19:27:25.223Z,4.03
2019-04-22T19:29:57.482Z,4.33
2019-04-22T19:32:35.355Z,4.40
2019-04-22T19:34:57.446Z,4.28
2019-04-22T19:37:28.814Z,4.08
2019-04-22T19:40:10.482Z,4.58
2019-04-22T19:42:43.145Z,4.22
2019-04-22T19:45:09.164Z,4.20
2019-04-22T19:47:44.995Z,4.12
2019-04-22T19:50:19.175Z,3.80
2019-04-22T19:52:44.605Z,4.50
2019-04-22T19:55:19.530Z,3.85
2019-04-22T19:57:47.866Z,4.25
2019-04-22T20:00:29.582Z,4.08
2019-04-22T20:03:29.319Z,4.72
2019-04-22T20:06:01.317Z,4.80
2019-04-22T20:08:25.113Z,4.42
2019-04-22T20:10:59.181Z,4.03
2019-04-22T20:13:37.009Z,4.05
2019-04-22T20:15:56.110Z,4.20
2019-04-22T20:18:40.446Z,4.30
2019-04-22T20:21:12.787Z,4.10
2019-04-22T20:23:35.104Z,4.28
2019-04-22T20:26:07.345Z,4.35
2019-04-22T20:28:41.821Z,4.65
2019-04-22T20:31:19.308Z,4.12
2019-04-22T20:33:51.360Z,4.08
2019-04-22T20:36:38.050Z,4.40
2019-04-22T20:38:51.106Z,4.30
2019-04-22T20:41:22.907Z,4.75
2019-04-22T20:44:02.517Z,4.65
2019-04-22T20:46:31.348Z,4.75
2019-04-22T20:49:01.334Z,5.00
2019-04-22T20:51:43.900Z,4.65
2019-04-22T20:54:07.431Z,4.15
2019-04-22T20:56:34.044Z,4.35
2019-04-22T20:59:08.634Z,4.47
2019-04-22T21:01:47.741Z,4.92
2019-04-22T21:03:59.872Z,4.72
2019-04-22T21:06:42.200Z,4.47
2019-04-22T21:09:25.392Z,4.58
2019-04-22T21:11:48.055Z,4.40
2019-04-22T21:14:21.608Z,4.12
2019-04-22T21:16:56.384Z,4.40
2019-04-22T21:19:38.305Z,4.37
2019-04-22T21:22:03.195Z,4.10
2019-04-22T21:24:32.930Z,4.45
2019-04-22T21:27:17.761Z,4.10
2019-04-22T21:29:33.397Z,4.10
2019-04-22T21:32:15.190Z,4.00
2019-04-22T21:34:52.843Z,4.25
2019-04-22T21:37:38.051Z,3.83
2019-04-22T21:39:46.412Z,3.67
2019-04-22T21:42:24.669Z,3.90
2019-04-22T21:44:52.713Z,3.87
2019-04-22T21:47:40.402Z,4.07
2019-04-22T21:50:21.348Z,3.95
2019-04-22T21:52:35.829Z,4.20
2019-04-22T21:55:13.991Z,3.62
2019-04-22T21:57:57.691Z,4.00
2019-04-22T22:00:40.559Z,3.87
2019-04-22T22:02:59.131Z,3.27
2019-04-22T22:05:27.147Z,3.60
2019-04-22T22:07:53.413Z,3.60
2019-04-22T22:10:39.805Z,3.55
2019-04-22T22:13:06.649Z,3.83
2019-04-22T22:15:41.994Z,3.47
2019-04-22T22:18:10.030Z,4.07
2019-04-22T22:21:01.073Z,4.10
2019-04-22T22:23:25.244Z,3.58
2019-04-22T22:25:43.620Z,3.58
2019-04-22T22:28:36.133Z,3.72
2019-04-22T22:31:00.194Z,3.50
2019-04-22T22:33:26.331Z,3.40
2019-04-22T22:35:56.530Z,3.17
2019-04-22T22:38:22.962Z,3.63
2019-04-22T22:40:40.436Z,3.20
2019-04-22T22:43:21.343Z,3.50
2019-04-22T22:45:52.851Z,3.30
2019-04-22T22:48:39.865Z,3.27
2019-04-22T22:51:07.635Z,3.47
2019-04-22T22:53:47.844Z,3.33
2019-04-22T22:56:14.291Z,3.30
2019-04-22T22:58:50.516Z,3.20
2019-04-22T23:01:21.234Z,3.43
2019-04-22T23:03:57.099Z,4.00
2019-04-22T23:06:26.077Z,3.50
2019-04-22T23:08:56.096Z,3.40
2019-04-22T23:11:46.526Z,3.30
2019-04-22T23:14:02.526Z,3.27
2019-04-22T23:16:22.043Z,3.37
2019-04-22T23:19:02.361Z,3.22
2019-04-22T23:21:43.313Z,3.00
2019-04-22T23:24:43.937Z,3.40
2019-04-22T23:27:21.170Z,2.93
2019-04-22T23:29:55.586Z,3.23
2019-04-22T23:32:31.943Z,3.20
2019-04-22T23:35:17.990Z,3.30
2019-04-22T23:37:54.002Z,3.63
2019-04-22T23:43:03.903Z,3.43
2019-04-22T23:45:34.867Z,3.12
2019-04-22T23:47:49.552Z,3.30
2019-04-22T23:50:35.818Z,2.97
2019-04-22T23:53:31.563Z,3.03
2019-04-22T23:55:53.171Z,3.07
2019-04-22T23:58:35.634Z,3.25
